TimePST,TemperatureF,Dew PointF,Humidity,Sea Level PressureIn,VisibilityMPH,Wind Direction,Wind SpeedMPH,Gust SpeedMPH,PrecipitationIn,Events,Conditions,WindDirDegrees,DateUTC
12:00 AM,40.8,32.0,71,-9999,-9999.0,West,10.4,-,N/A,,Unknown,260,2012-12-08 08:00:00
1:00 AM,40,31,62,,,West,11.5,,,,,260,2012-12-08 09:00:00
1:00 AM,40.5,31.5,70,-9999,-9999.0,West,11.5,19.6,N/A,,Unknown,260,2012-12-08 09:00:00
2:00 AM,40.3,31.3,70,-9999,-9999.0,West,5.8,-,N/A,,Unknown,280,2012-12-08 10:00:00
3:00 AM,40.1,30.6,69,-9999,-9999.0,WNW,3.5,-,N/A,,Unknown,300,2012-12-08 11:00:00
4:00 AM,40,32,63,,,West,6.9,,,,,270,2012-12-08 12:00:00
4:00 AM,39.9,31.8,73,-9999,-9999.0,West,6.9,-,N/A,,Unknown,270,2012-12-08 12:00:00
5:00 AM,40.1,33.3,77,-9999,-9999.0,WNW,4.6,-,N/A,,Unknown,290,2012-12-08 13:00:00
6:00 AM,39.2,31.6,74,-9999,-9999.0,North,5.8,-,N/A,,Unknown,350,2012-12-08 14:00:00
7:00 AM,38,31,69,,,North,8.1,,,,,10,2012-12-08 15:00:00
7:00 AM,37.9,31.5,77,-9999,-9999.0,North,8.1,-,N/A,,Unknown,10,2012-12-08 15:00:00
8:00 AM,37.2,30.7,77,-9999,-9999.0,North,11.5,-,N/A,,Unknown,360,2012-12-08 16:00:00
9:00 AM,37.9,30.9,76,-9999,-9999.0,North,8.1,-,N/A,,Unknown,350,2012-12-08 17:00:00
10:00 AM,40,32,65,,,North,6.9,,,,,0,2012-12-08 18:00:00
10:00 AM,39.6,31.8,74,-9999,-9999.0,North,6.9,-,N/A,,Unknown,360,2012-12-08 18:00:00
11:00 AM,42.3,31.6,66,-9999,-9999.0,North,4.6,-,N/A,,Unknown,10,2012-12-08 19:00:00
12:00 PM,41.7,31.3,66,-9999,-9999.0,NNE,5.8,-,N/A,,Unknown,20,2012-12-08 20:00:00
1:00 PM,43,33,58,,,NNE,3.5,,,,,20,2012-12-08 21:00:00
1:00 PM,43.3,33.3,68,-9999,-9999.0,NNE,3.5,-,N/A,,Unknown,20,2012-12-08 21:00:00
2:00 PM,41.9,33.1,71,-9999,-9999.0,NNE,3.5,-,N/A,,Unknown,30,2012-12-08 22:00:00
3:00 PM,41.0,33.3,74,-9999,-9999.0,NNE,5.8,-,N/A,,Unknown,30,2012-12-08 23:00:00
4:00 PM,40,33,66,,,NNE,3.5,,,,,30,2012-12-09 00:00:00
4:00 PM,40.1,31.5,71,-9999,-9999.0,NNE,3.5,-,N/A,,Unknown,30,2012-12-09 00:00:00
5:00 PM,39.9,32.9,76,-9999,-9999.0,NNE,2.3,-,N/A,,Unknown,20,2012-12-09 01:00:00
6:00 PM,39.4,33.3,79,-9999,-9999.0,NE,2.3,-,N/A,,Unknown,50,2012-12-09 02:00:00
7:00 PM,39,34,76,,,NE,2.3,,,,,40,2012-12-09 03:00:00
8:00 PM,39.6,34.0,80,-9999,-9999.0,NNE,3.5,-,N/A,,Unknown,30,2012-12-09 04:00:00
10:00 PM,39,34,74,,,NNE,4.6,,,,,30,2012-12-09 06:00:00
10:00 PM,39.0,33.6,81,-9999,-9999.0,NNE,4.6,-,N/A,,Unknown,30,2012-12-09 06:00:00
11:00 PM,39.6,33.6,79,-9999,-9999.0,NE,3.5,-,N/A,,Unknown,40,2012-12-09 07:00:00